sensor_id;sensor_type;location;lat;lon;timestamp;pressure;altitude;pressure_sealevel;temperature;humidity
9139;BME280;4604;48.616;9.548;2022-09-25T00:01:48;96533.00;;;10.52;100.00
9139;BME280;4604;48.616;9.548;2022-09-25T00:04:14;96536.09;;;10.47;100.00
9139;BME280;4604;48.616;9.548;2022-09-25T00:06:43;96536.09;;;10.47;100.00
9139;BME280;4604;48.616;9.548;2022-09-25T00:09:12;96535.41;;;10.45;100.00
9139;BME280;4604;48.616;9.548;2022-09-25T00:11:44;96545.13;;;10.45;100.00
9139;BME280;4604;48.616;9.548;2022-09-25T00:14:11;96539.84;;;10.45;100.00
9139;BME280;4604;48.616;9.548;2022-09-25T00:16:38;96536.97;;;10.38;100.00
9139;BME280;4604;48.616;9.548;2022-09-25T00:19:05;96535.06;;;10.31;100.00
9139;BME280;4604;48.616;9.548;2022-09-25T00:21:50;96523.41;;;10.23;100.00
9139;BME280;4604;48.616;9.548;2022-09-25T00:24:18;96523.28;;;10.25;100.00
9139;BME280;4604;48.616;9.548;2022-09-25T00:26:44;96522.28;;;10.26;100.00
9139;BME280;4604;48.616;9.548;2022-09-25T00:29:16;96526.75;;;10.25;100.00
9139;BME280;4604;48.616;9.548;2022-09-25T00:31:44;96519.13;;;10.22;100.00
9139;BME280;4604;48.616;9.548;2022-09-25T00:34:13;96493.44;;;9.97;100.00
9139;BME280;4604;48.616;9.548;2022-09-25T00:36:40;96500.78;;;10.03;100.00
9139;BME280;4604;48.616;9.548;2022-09-25T00:39:09;96514.34;;;10.08;100.00
9139;BME280;4604;48.616;9.548;2022-09-25T00:41:35;96510.63;;;10.01;100.00
9139;BME280;4604;48.616;9.548;2022-09-25T00:44:03;96511.34;;;9.93;100.00
9139;BME280;4604;48.616;9.548;2022-09-25T00:46:33;96515.25;;;9.89;100.00
9139;BME280;4604;48.616;9.548;2022-09-25T00:49:02;96506.94;;;9.84;100.00
9139;BME280;4604;48.616;9.548;2022-09-25T00:51:33;96515.53;;;9.86;100.00
9139;BME280;4604;48.616;9.548;2022-09-25T00:54:04;96507.53;;;9.78;100.00
9139;BME280;4604;48.616;9.548;2022-09-25T00:56:36;96512.38;;;9.73;100.00
9139;BME280;4604;48.616;9.548;2022-09-25T00:59:08;96512.00;;;9.68;100.00
9139;BME280;4604;48.616;9.548;2022-09-25T01:01:36;96507.56;;;9.68;100.00
9139;BME280;4604;48.616;9.548;2022-09-25T01:04:03;96496.91;;;9.60;100.00
9139;BME280;4604;48.616;9.548;2022-09-25T01:06:30;96498.59;;;9.61;100.00
9139;BME280;4604;48.616;9.548;2022-09-25T01:08:58;96498.72;;;9.59;100.00
9139;BME280;4604;48.616;9.548;2022-09-25T01:11:25;96497.34;;;9.55;100.00
9139;BME280;4604;48.616;9.548;2022-09-25T01:13:54;96491.97;;;9.47;100.00
9139;BME280;4604;48.616;9.548;2022-09-25T01:16:27;96496.38;;;9.56;100.00
9139;BME280;4604;48.616;9.548;2022-09-25T01:19:04;96501.91;;;9.53;100.00
9139;BME280;4604;48.616;9.548;2022-09-25T01:21:48;96498.84;;;9.58;100.00
9139;BME280;4604;48.616;9.548;2022-09-25T01:24:35;96477.16;;;9.46;100.00
9139;BME280;4604;48.616;9.548;2022-09-25T01:27:19;96491.81;;;9.58;100.00
9139;BME280;4604;48.616;9.548;2022-09-25T01:29:55;96481.28;;;9.49;100.00
9139;BME280;4604;48.616;9.548;2022-09-25T01:32:30;96490.56;;;9.53;100.00
9139;BME280;4604;48.616;9.548;2022-09-25T01:35:01;96488.91;;;9.52;100.00
9139;BME280;4604;48.616;9.548;2022-09-25T01:37:32;96490.97;;;9.48;100.00
9139;BME280;4604;48.616;9.548;2022-09-25T01:40:07;96489.75;;;9.42;100.00
9139;BME280;4604;48.616;9.548;2022-09-25T01:42:39;96491.28;;;9.45;100.00
9139;BME280;4604;48.616;9.548;2022-09-25T01:45:13;96458.75;;;9.27;100.00
9139;BME280;4604;48.616;9.548;2022-09-25T01:47:46;96477.44;;;9.33;100.00
9139;BME280;4604;48.616;9.548;2022-09-25T01:50:17;96487.84;;;9.35;100.00
9139;BME280;4604;48.616;9.548;2022-09-25T01:52:48;96482.69;;;9.33;100.00
9139;BME280;4604;48.616;9.548;2022-09-25T01:55:20;96474.28;;;9.30;100.00
9139;BME280;4604;48.616;9.548;2022-09-25T01:57:52;96478.56;;;9.31;100.00
9139;BME280;4604;48.616;9.548;2022-09-25T02:00:23;96466.38;;;9.30;100.00
9139;BME280;4604;48.616;9.548;2022-09-25T02:02:54;96470.69;;;9.21;100.00
9139;BME280;4604;48.616;9.548;2022-09-25T02:05:26;96475.81;;;9.23;100.00
9139;BME280;4604;48.616;9.548;2022-09-25T02:07:59;96485.66;;;9.20;100.00
9139;BME280;4604;48.616;9.548;2022-09-25T02:10:31;96479.97;;;9.15;100.00
9139;BME280;4604;48.616;9.548;2022-09-25T02:13:05;96471.13;;;9.07;100.00
9139;BME280;4604;48.616;9.548;2022-09-25T02:15:37;96472.91;;;9.16;100.00
9139;BME280;4604;48.616;9.548;2022-09-25T02:18:08;96473.88;;;9.15;100.00
9139;BME280;4604;48.616;9.548;2022-09-25T02:20:59;96480.41;;;9.11;100.00
9139;BME280;4604;48.616;9.548;2022-09-25T02:23:33;96477.50;;;9.04;100.00
9139;BME280;4604;48.616;9.548;2022-09-25T02:26:05;96480.69;;;9.08;100.00
9139;BME280;4604;48.616;9.548;2022-09-25T02:28:34;96487.19;;;9.04;100.00
9139;BME280;4604;48.616;9.548;2022-09-25T02:31:06;96483.59;;;9.05;100.00
9139;BME280;4604;48.616;9.548;2022-09-25T02:33:33;96487.59;;;9.09;100.00
9139;BME280;4604;48.616;9.548;2022-09-25T02:36:02;96482.34;;;9.09;100.00
9139;BME280;4604;48.616;9.548;2022-09-25T02:38:29;96478.06;;;9.08;100.00
9139;BME280;4604;48.616;9.548;2022-09-25T02:41:02;96488.16;;;9.12;100.00
9139;BME280;4604;48.616;9.548;2022-09-25T02:43:37;96487.59;;;9.18;100.00
9139;BME280;4604;48.616;9.548;2022-09-25T02:46:12;96488.28;;;9.20;100.00
9139;BME280;4604;48.616;9.548;2022-09-25T02:48:50;96486.47;;;9.21;100.00
9139;BME280;4604;48.616;9.548;2022-09-25T02:51:23;96483.00;;;9.20;100.00
9139;BME280;4604;48.616;9.548;2022-09-25T02:53:56;96484.13;;;9.18;100.00
9139;BME280;4604;48.616;9.548;2022-09-25T02:56:32;96482.19;;;9.20;100.00
9139;BME280;4604;48.616;9.548;2022-09-25T02:59:02;96471.94;;;9.17;100.00
9139;BME280;4604;48.616;9.548;2022-09-25T03:01:34;96468.06;;;9.11;100.00
9139;BME280;4604;48.616;9.548;2022-09-25T03:04:03;96469.56;;;9.14;100.00
9139;BME280;4604;48.616;9.548;2022-09-25T03:06:31;96461.00;;;9.02;100.00
9139;BME280;4604;48.616;9.548;2022-09-25T03:08:59;96472.63;;;9.09;100.00
9139;BME280;4604;48.616;9.548;2022-09-25T03:11:26;96476.13;;;9.10;100.00
9139;BME280;4604;48.616;9.548;2022-09-25T03:13:57;96474.84;;;9.14;100.00
9139;BME280;4604;48.616;9.548;2022-09-25T03:16:32;96472.75;;;9.27;100.00
9139;BME280;4604;48.616;9.548;2022-09-25T03:19:00;96475.00;;;9.22;100.00
9139;BME280;4604;48.616;9.548;2022-09-25T03:21:27;96477.63;;;9.22;100.00
9139;BME280;4604;48.616;9.548;2022-09-25T03:23:54;96478.97;;;9.26;100.00
9139;BME280;4604;48.616;9.548;2022-09-25T03:26:22;96486.16;;;9.34;100.00
9139;BME280;4604;48.616;9.548;2022-09-25T03:28:50;96481.00;;;9.52;100.00
9139;BME280;4604;48.616;9.548;2022-09-25T03:31:17;96484.63;;;9.41;100.00
9139;BME280;4604;48.616;9.548;2022-09-25T03:33:46;96490.97;;;9.48;100.00
9139;BME280;4604;48.616;9.548;2022-09-25T03:36:14;96493.50;;;9.40;100.00
9139;BME280;4604;48.616;9.548;2022-09-25T03:38:42;96480.06;;;9.33;100.00
9139;BME280;4604;48.616;9.548;2022-09-25T03:41:11;96490.16;;;9.48;100.00
9139;BME280;4604;48.616;9.548;2022-09-25T03:43:40;96484.47;;;9.52;100.00
9139;BME280;4604;48.616;9.548;2022-09-25T03:46:09;96482.66;;;9.53;100.00
9139;BME280;4604;48.616;9.548;2022-09-25T03:48:36;96489.16;;;9.58;100.00
9139;BME280;4604;48.616;9.548;2022-09-25T03:51:05;96473.38;;;9.58;100.00
9139;BME280;4604;48.616;9.548;2022-09-25T03:53:33;96486.72;;;9.75;100.00
9139;BME280;4604;48.616;9.548;2022-09-25T03:56:01;96473.31;;;9.68;100.00
9139;BME280;4604;48.616;9.548;2022-09-25T03:58:28;96479.50;;;9.77;100.00
9139;BME280;4604;48.616;9.548;2022-09-25T04:00:55;96477.69;;;9.77;100.00
9139;BME280;4604;48.616;9.548;2022-09-25T04:03:23;96472.16;;;9.80;100.00
9139;BME280;4604;48.616;9.548;2022-09-25T04:05:52;96471.88;;;9.83;100.00
9139;BME280;4604;48.616;9.548;2022-09-25T04:08:21;96469.75;;;9.87;100.00
9139;BME280;4604;48.616;9.548;2022-09-25T04:10:51;96473.06;;;9.89;100.00
9139;BME280;4604;48.616;9.548;2022-09-25T04:13:20;96469.47;;;9.90;100.00
9139;BME280;4604;48.616;9.548;2022-09-25T04:15:47;96465.59;;;9.84;100.00
9139;BME280;4604;48.616;9.548;2022-09-25T04:18:14;96470.69;;;9.96;100.00
9139;BME280;4604;48.616;9.548;2022-09-25T04:20:41;96466.38;;;9.95;100.00
9139;BME280;4604;48.616;9.548;2022-09-25T04:23:08;96461.97;;;9.95;100.00
9139;BME280;4604;48.616;9.548;2022-09-25T04:25:36;96460.41;;;10.02;100.00
9139;BME280;4604;48.616;9.548;2022-09-25T04:28:03;96447.50;;;9.99;100.00
9139;BME280;4604;48.616;9.548;2022-09-25T04:30:32;96464.63;;;10.13;100.00
9139;BME280;4604;48.616;9.548;2022-09-25T04:32:59;96466.97;;;10.16;100.00
9139;BME280;4604;48.616;9.548;2022-09-25T04:35:43;96460.56;;;10.19;100.00
9139;BME280;4604;48.616;9.548;2022-09-25T04:38:10;96474.59;;;10.19;100.00
9139;BME280;4604;48.616;9.548;2022-09-25T04:40:38;96472.09;;;10.18;100.00
9139;BME280;4604;48.616;9.548;2022-09-25T04:43:06;96473.59;;;10.20;100.00
9139;BME280;4604;48.616;9.548;2022-09-25T04:45:34;96473.31;;;10.23;100.00
9139;BME280;4604;48.616;9.548;2022-09-25T04:48:02;96474.69;;;10.27;100.00
9139;BME280;4604;48.616;9.548;2022-09-25T04:50:29;96477.88;;;10.31;100.00
9139;BME280;4604;48.616;9.548;2022-09-25T04:52:57;96482.88;;;10.34;100.00
9139;BME280;4604;48.616;9.548;2022-09-25T04:55:24;96481.75;;;10.37;100.00
9139;BME280;4604;48.616;9.548;2022-09-25T04:57:54;96475.16;;;10.41;100.00
9139;BME280;4604;48.616;9.548;2022-09-25T05:00:22;96479.31;;;10.43;100.00
9139;BME280;4604;48.616;9.548;2022-09-25T05:02:49;96476.53;;;10.45;100.00
9139;BME280;4604;48.616;9.548;2022-09-25T05:05:17;96479.03;;;10.46;100.00
9139;BME280;4604;48.616;9.548;2022-09-25T05:07:50;96460.41;;;10.48;100.00
9139;BME280;4604;48.616;9.548;2022-09-25T05:10:17;96463.66;;;10.60;100.00
9139;BME280;4604;48.616;9.548;2022-09-25T05:12:44;96464.78;;;10.57;100.00
9139;BME280;4604;48.616;9.548;2022-09-25T05:15:13;96460.63;;;10.55;100.00
9139;BME280;4604;48.616;9.548;2022-09-25T05:17:40;96459.66;;;10.56;100.00
9139;BME280;4604;48.616;9.548;2022-09-25T05:20:07;96465.47;;;10.59;100.00
9139;BME280;4604;48.616;9.548;2022-09-25T05:22:35;96464.19;;;10.63;100.00
9139;BME280;4604;48.616;9.548;2022-09-25T05:25:02;96462.38;;;10.64;100.00
9139;BME280;4604;48.616;9.548;2022-09-25T05:27:31;96460.41;;;10.66;100.00
9139;BME280;4604;48.616;9.548;2022-09-25T05:29:57;96460.09;;;10.69;100.00
9139;BME280;4604;48.616;9.548;2022-09-25T05:32:26;96462.75;;;10.69;100.00
9139;BME280;4604;48.616;9.548;2022-09-25T05:34:52;96457.47;;;10.69;100.00
9139;BME280;4604;48.616;9.548;2022-09-25T05:37:19;96472.75;;;10.65;100.00
9139;BME280;4604;48.616;9.548;2022-09-25T05:39:46;96459.50;;;10.57;100.00
9139;BME280;4604;48.616;9.548;2022-09-25T05:42:14;96473.16;;;10.70;100.00
9139;BME280;4604;48.616;9.548;2022-09-25T05:44:44;96471.19;;;10.55;100.00
9139;BME280;4604;48.616;9.548;2022-09-25T05:47:17;96470.50;;;10.53;100.00
9139;BME280;4604;48.616;9.548;2022-09-25T05:49:45;96480.38;;;10.50;100.00
9139;BME280;4604;48.616;9.548;2022-09-25T05:52:14;96474.28;;;10.50;100.00
9139;BME280;4604;48.616;9.548;2022-09-25T05:54:40;96469.81;;;10.50;100.00
9139;BME280;4604;48.616;9.548;2022-09-25T05:57:07;96474.28;;;10.50;100.00
9139;BME280;4604;48.616;9.548;2022-09-25T05:59:34;96487.47;;;10.50;100.00
9139;BME280;4604;48.616;9.548;2022-09-25T06:02:01;96480.81;;;10.46;100.00
9139;BME280;4604;48.616;9.548;2022-09-25T06:04:27;96467.81;;;10.44;100.00
9139;BME280;4604;48.616;9.548;2022-09-25T06:06:56;96473.16;;;10.53;100.00
9139;BME280;4604;48.616;9.548;2022-09-25T06:09:25;96478.13;;;10.56;100.00
9139;BME280;4604;48.616;9.548;2022-09-25T06:11:52;96474.34;;;10.58;100.00
9139;BME280;4604;48.616;9.548;2022-09-25T06:14:18;96481.00;;;10.62;100.00
9139;BME280;4604;48.616;9.548;2022-09-25T06:16:46;96486.38;;;10.70;100.00
9139;BME280;4604;48.616;9.548;2022-09-25T06:19:14;96482.28;;;10.76;100.00
9139;BME280;4604;48.616;9.548;2022-09-25T06:21:42;96486.28;;;10.80;100.00
9139;BME280;4604;48.616;9.548;2022-09-25T06:24:13;96478.75;;;10.85;100.00
9139;BME280;4604;48.616;9.548;2022-09-25T06:26:39;96478.44;;;10.88;100.00
9139;BME280;4604;48.616;9.548;2022-09-25T06:29:06;96485.28;;;10.99;100.00
9139;BME280;4604;48.616;9.548;2022-09-25T06:31:33;96488.13;;;11.06;100.00
9139;BME280;4604;48.616;9.548;2022-09-25T06:34:00;96476.28;;;11.10;100.00
9139;BME280;4604;48.616;9.548;2022-09-25T06:36:27;96485.91;;;11.19;100.00
9139;BME280;4604;48.616;9.548;2022-09-25T06:38:53;96484.84;;;11.30;100.00
9139;BME280;4604;48.616;9.548;2022-09-25T06:41:23;96476.97;;;11.38;100.00
9139;BME280;4604;48.616;9.548;2022-09-25T06:43:50;96480.31;;;11.48;100.00
9139;BME280;4604;48.616;9.548;2022-09-25T06:46:17;96485.81;;;11.55;100.00
9139;BME280;4604;48.616;9.548;2022-09-25T06:48:50;96488.38;;;11.65;100.00
9139;BME280;4604;48.616;9.548;2022-09-25T06:51:18;96488.25;;;11.74;100.00
9139;BME280;4604;48.616;9.548;2022-09-25T06:53:45;96489.59;;;11.78;100.00
9139;BME280;4604;48.616;9.548;2022-09-25T06:56:12;96478.56;;;11.83;100.00
9139;BME280;4604;48.616;9.548;2022-09-25T06:58:40;96496.44;;;11.89;100.00
9139;BME280;4604;48.616;9.548;2022-09-25T07:01:07;96495.16;;;11.93;100.00
9139;BME280;4604;48.616;9.548;2022-09-25T07:03:36;96498.16;;;11.98;100.00
9139;BME280;4604;48.616;9.548;2022-09-25T07:06:12;96499.78;;;11.99;100.00
9139;BME280;4604;48.616;9.548;2022-09-25T07:08:40;96502.97;;;12.03;100.00
9139;BME280;4604;48.616;9.548;2022-09-25T07:11:11;96499.31;;;12.04;100.00
9139;BME280;4604;48.616;9.548;2022-09-25T07:13:38;96503.19;;;12.10;100.00
9139;BME280;4604;48.616;9.548;2022-09-25T07:16:10;96497.22;;;12.16;100.00
9139;BME280;4604;48.616;9.548;2022-09-25T07:18:37;96500.91;;;12.23;100.00
9139;BME280;4604;48.616;9.548;2022-09-25T07:21:06;96499.75;;;12.26;100.00
9139;BME280;4604;48.616;9.548;2022-09-25T07:23:33;96487.03;;;12.29;100.00
9139;BME280;4604;48.616;9.548;2022-09-25T07:26:05;96495.00;;;12.37;100.00
9139;BME280;4604;48.616;9.548;2022-09-25T07:28:32;96492.53;;;12.44;100.00
9139;BME280;4604;48.616;9.548;2022-09-25T07:31:13;96495.34;;;12.51;100.00
9139;BME280;4604;48.616;9.548;2022-09-25T07:33:41;96489.41;;;12.57;100.00
9139;BME280;4604;48.616;9.548;2022-09-25T07:36:08;96498.56;;;12.71;100.00
9139;BME280;4604;48.616;9.548;2022-09-25T07:38:35;96496.91;;;12.78;100.00
9139;BME280;4604;48.616;9.548;2022-09-25T07:41:02;96496.09;;;12.85;100.00
9139;BME280;4604;48.616;9.548;2022-09-25T07:43:30;96501.22;;;12.95;100.00
9139;BME280;4604;48.616;9.548;2022-09-25T07:45:57;96499.59;;;13.02;100.00
9139;BME280;4604;48.616;9.548;2022-09-25T07:48:25;96497.56;;;13.04;100.00
9139;BME280;4604;48.616;9.548;2022-09-25T07:50:58;96504.72;;;13.12;100.00
9139;BME280;4604;48.616;9.548;2022-09-25T07:53:25;96494.59;;;13.16;100.00
9139;BME280;4604;48.616;9.548;2022-09-25T07:55:55;96511.66;;;13.21;100.00
9139;BME280;4604;48.616;9.548;2022-09-25T07:58:22;96506.69;;;13.26;100.00
9139;BME280;4604;48.616;9.548;2022-09-25T08:00:49;96499.41;;;13.20;100.00
9139;BME280;4604;48.616;9.548;2022-09-25T08:03:16;96502.09;;;13.37;100.00
9139;BME280;4604;48.616;9.548;2022-09-25T08:05:44;96488.34;;;13.41;100.00
9139;BME280;4604;48.616;9.548;2022-09-25T08:08:11;96506.00;;;13.65;100.00
9139;BME280;4604;48.616;9.548;2022-09-25T08:10:38;96503.53;;;13.64;100.00
9139;BME280;4604;48.616;9.548;2022-09-25T08:13:04;96509.97;;;13.78;100.00
9139;BME280;4604;48.616;9.548;2022-09-25T08:15:32;96475.22;;;13.56;100.00
9139;BME280;4604;48.616;9.548;2022-09-25T08:17:59;96507.44;;;13.84;100.00
9139;BME280;4604;48.616;9.548;2022-09-25T08:20:26;96500.97;;;13.87;100.00
9139;BME280;4604;48.616;9.548;2022-09-25T08:22:55;96506.44;;;13.94;100.00
9139;BME280;4604;48.616;9.548;2022-09-25T08:25:22;96505.78;;;13.91;100.00
9139;BME280;4604;48.616;9.548;2022-09-25T08:27:49;96504.69;;;13.78;100.00
9139;BME280;4604;48.616;9.548;2022-09-25T08:30:16;96504.69;;;13.61;100.00
9139;BME280;4604;48.616;9.548;2022-09-25T08:32:43;96505.03;;;13.66;100.00
9139;BME280;4604;48.616;9.548;2022-09-25T08:35:09;96502.81;;;13.86;100.00
9139;BME280;4604;48.616;9.548;2022-09-25T08:37:39;96498.94;;;14.05;100.00
9139;BME280;4604;48.616;9.548;2022-09-25T08:40:15;96498.91;;;14.13;100.00
9139;BME280;4604;48.616;9.548;2022-09-25T08:42:44;96498.22;;;14.20;100.00
9139;BME280;4604;48.616;9.548;2022-09-25T08:45:23;96493.38;;;14.23;100.00
9139;BME280;4604;48.616;9.548;2022-09-25T08:48:15;96492.72;;;14.29;100.00
9139;BME280;4604;48.616;9.548;2022-09-25T08:51:02;96492.63;;;14.06;100.00
9139;BME280;4604;48.616;9.548;2022-09-25T08:53:31;96494.31;;;14.07;100.00
9139;BME280;4604;48.616;9.548;2022-09-25T08:56:02;96485.56;;;13.90;100.00
9139;BME280;4604;48.616;9.548;2022-09-25T08:58:47;96489.69;;;13.93;100.00
9139;BME280;4604;48.616;9.548;2022-09-25T09:01:18;96494.19;;;13.84;100.00
9139;BME280;4604;48.616;9.548;2022-09-25T09:03:50;96497.34;;;13.80;100.00
9139;BME280;4604;48.616;9.548;2022-09-25T09:06:18;96489.91;;;13.83;100.00
9139;BME280;4604;48.616;9.548;2022-09-25T09:08:48;96495.06;;;13.68;100.00
9139;BME280;4604;48.616;9.548;2022-09-25T09:11:21;96493.41;;;13.67;100.00
9139;BME280;4604;48.616;9.548;2022-09-25T09:13:53;96495.22;;;13.67;100.00
9139;BME280;4604;48.616;9.548;2022-09-25T09:16:29;96492.91;;;13.72;100.00
9139;BME280;4604;48.616;9.548;2022-09-25T09:18:59;96492.22;;;13.70;100.00
9139;BME280;4604;48.616;9.548;2022-09-25T09:21:33;96494.88;;;13.78;100.00
9139;BME280;4604;48.616;9.548;2022-09-25T09:24:05;96490.88;;;13.82;100.00
9139;BME280;4604;48.616;9.548;2022-09-25T09:26:42;96492.03;;;13.80;100.00
9139;BME280;4604;48.616;9.548;2022-09-25T09:29:29;96495.19;;;13.75;100.00
9139;BME280;4604;48.616;9.548;2022-09-25T09:32:15;96486.44;;;13.75;100.00
9139;BME280;4604;48.616;9.548;2022-09-25T09:34:54;96499.38;;;13.78;100.00
9139;BME280;4604;48.616;9.548;2022-09-25T09:37:33;96492.56;;;13.83;100.00
9139;BME280;4604;48.616;9.548;2022-09-25T09:40:16;96493.22;;;13.85;100.00
9139;BME280;4604;48.616;9.548;2022-09-25T09:42:53;96487.53;;;13.97;100.00
9139;BME280;4604;48.616;9.548;2022-09-25T09:45:28;96484.94;;;13.80;100.00
9139;BME280;4604;48.616;9.548;2022-09-25T09:48:02;96488.69;;;14.02;100.00
9139;BME280;4604;48.616;9.548;2022-09-25T09:50:38;96482.16;;;14.13;100.00
9139;BME280;4604;48.616;9.548;2022-09-25T09:53:22;96477.47;;;14.23;100.00
9139;BME280;4604;48.616;9.548;2022-09-25T09:55:55;96478.22;;;14.40;100.00
9139;BME280;4604;48.616;9.548;2022-09-25T09:58:29;96484.94;;;14.59;100.00
9139;BME280;4604;48.616;9.548;2022-09-25T10:00:57;96482.13;;;14.61;100.00
9139;BME280;4604;48.616;9.548;2022-09-25T10:03:27;96485.19;;;14.72;100.00
9139;BME280;4604;48.616;9.548;2022-09-25T10:05:57;96478.47;;;14.85;100.00
9139;BME280;4604;48.616;9.548;2022-09-25T10:08:25;96472.28;;;14.92;100.00
9139;BME280;4604;48.616;9.548;2022-09-25T10:10:52;96474.44;;;14.89;100.00
9139;BME280;4604;48.616;9.548;2022-09-25T10:13:24;96474.75;;;14.71;100.00
9139;BME280;4604;48.616;9.548;2022-09-25T10:15:57;96468.34;;;14.80;100.00
9139;BME280;4604;48.616;9.548;2022-09-25T10:18:28;96469.25;;;14.95;100.00
9139;BME280;4604;48.616;9.548;2022-09-25T10:21:00;96475.44;;;15.11;100.00
9139;BME280;4604;48.616;9.548;2022-09-25T10:23:37;96474.91;;;15.15;100.00
9139;BME280;4604;48.616;9.548;2022-09-25T10:26:22;96471.91;;;15.33;100.00
9139;BME280;4604;48.616;9.548;2022-09-25T10:28:50;96466.63;;;15.48;100.00
9139;BME280;4604;48.616;9.548;2022-09-25T10:31:18;96467.28;;;15.65;100.00
9139;BME280;4604;48.616;9.548;2022-09-25T10:34:01;96453.72;;;15.60;100.00
9139;BME280;4604;48.616;9.548;2022-09-25T10:36:34;96469.13;;;15.65;100.00
9139;BME280;4604;48.616;9.548;2022-09-25T10:39:03;96472.44;;;15.67;100.00
9139;BME280;4604;48.616;9.548;2022-09-25T10:41:41;96468.69;;;15.61;99.38
9139;BME280;4604;48.616;9.548;2022-09-25T10:44:20;96470.69;;;15.59;96.36
9139;BME280;4604;48.616;9.548;2022-09-25T10:46:49;96474.00;;;15.46;94.75
9139;BME280;4604;48.616;9.548;2022-09-25T10:49:45;96467.44;;;15.34;96.12
9139;BME280;4604;48.616;9.548;2022-09-25T10:52:44;96477.34;;;15.40;95.07
9139;BME280;4604;48.616;9.548;2022-09-25T10:55:13;96467.00;;;15.45;95.74
9139;BME280;4604;48.616;9.548;2022-09-25T10:57:45;96472.41;;;15.37;94.42
9139;BME280;4604;48.616;9.548;2022-09-25T11:00:20;96479.00;;;15.41;95.16
9139;BME280;4604;48.616;9.548;2022-09-25T11:02:51;96492.63;;;15.23;96.50
9139;BME280;4604;48.616;9.548;2022-09-25T11:05:25;96482.81;;;15.24;95.59
9139;BME280;4604;48.616;9.548;2022-09-25T11:07:55;96460.34;;;15.26;95.62
9139;BME280;4604;48.616;9.548;2022-09-25T11:10:25;96472.50;;;15.44;95.19
9139;BME280;4604;48.616;9.548;2022-09-25T11:12:52;96480.69;;;15.57;94.28
9139;BME280;4604;48.616;9.548;2022-09-25T11:15:23;96466.56;;;15.56;93.26
9139;BME280;4604;48.616;9.548;2022-09-25T11:17:54;96483.00;;;15.75;91.93
9139;BME280;4604;48.616;9.548;2022-09-25T11:20:24;96473.66;;;15.79;88.51
9139;BME280;4604;48.616;9.548;2022-09-25T11:23:02;96483.50;;;15.93;87.16
9139;BME280;4604;48.616;9.548;2022-09-25T11:25:37;96477.78;;;15.81;86.98
9139;BME280;4604;48.616;9.548;2022-09-25T11:28:12;96481.56;;;15.87;88.67
9139;BME280;4604;48.616;9.548;2022-09-25T11:30:44;96484.78;;;15.97;89.97
9139;BME280;4604;48.616;9.548;2022-09-25T11:33:22;96476.81;;;15.97;86.53
9139;BME280;4604;48.616;9.548;2022-09-25T11:35:51;96477.63;;;15.83;83.50
9139;BME280;4604;48.616;9.548;2022-09-25T11:38:27;96476.06;;;15.89;83.35
9139;BME280;4604;48.616;9.548;2022-09-25T11:41:16;96468.19;;;15.95;84.70
9139;BME280;4604;48.616;9.548;2022-09-25T11:43:58;96462.75;;;15.89;84.79
9139;BME280;4604;48.616;9.548;2022-09-25T11:46:34;96466.13;;;15.82;84.05
9139;BME280;4604;48.616;9.548;2022-09-25T11:49:15;96456.63;;;15.88;85.97
9139;BME280;4604;48.616;9.548;2022-09-25T11:52:13;96444.56;;;15.77;84.26
9139;BME280;4604;48.616;9.548;2022-09-25T11:57:38;96458.63;;;15.86;84.05
9139;BME280;4604;48.616;9.548;2022-09-25T12:00:16;96457.97;;;15.99;82.04
9139;BME280;4604;48.616;9.548;2022-09-25T12:02:58;96463.50;;;15.97;80.87
9139;BME280;4604;48.616;9.548;2022-09-25T12:06:00;96458.53;;;15.94;82.00
9139;BME280;4604;48.616;9.548;2022-09-25T12:08:42;96457.69;;;15.94;82.89
9139;BME280;4604;48.616;9.548;2022-09-25T12:11:17;96441.91;;;15.92;81.65
9139;BME280;4604;48.616;9.548;2022-09-25T12:13:54;96447.25;;;16.07;82.14
9139;BME280;4604;48.616;9.548;2022-09-25T12:16:33;96448.28;;;16.27;79.54
9139;BME280;4604;48.616;9.548;2022-09-25T12:19:11;96444.88;;;16.34;79.88
9139;BME280;4604;48.616;9.548;2022-09-25T12:21:48;96448.91;;;16.44;78.50
9139;BME280;4604;48.616;9.548;2022-09-25T12:24:27;96437.81;;;16.62;76.54
9139;BME280;4604;48.616;9.548;2022-09-25T12:27:04;96437.81;;;16.62;76.73
9139;BME280;4604;48.616;9.548;2022-09-25T12:29:46;96438.78;;;16.55;76.93
9139;BME280;4604;48.616;9.548;2022-09-25T12:32:25;96439.41;;;16.20;75.92
9139;BME280;4604;48.616;9.548;2022-09-25T12:35:08;96433.78;;;16.30;77.36
9139;BME280;4604;48.616;9.548;2022-09-25T12:37:41;96432.78;;;16.16;76.69
9139;BME280;4604;48.616;9.548;2022-09-25T12:40:17;96432.00;;;15.86;77.98
9139;BME280;4604;48.616;9.548;2022-09-25T12:42:51;96427.50;;;15.87;79.52
9139;BME280;4604;48.616;9.548;2022-09-25T12:45:24;96424.47;;;15.75;83.15
9139;BME280;4604;48.616;9.548;2022-09-25T12:48:04;96437.59;;;15.61;91.12
9139;BME280;4604;48.616;9.548;2022-09-25T12:50:38;96432.81;;;15.57;92.36
9139;BME280;4604;48.616;9.548;2022-09-25T12:53:21;96437.91;;;15.29;94.80
9139;BME280;4604;48.616;9.548;2022-09-25T12:55:53;96441.00;;;15.17;97.25
9139;BME280;4604;48.616;9.548;2022-09-25T12:58:27;96441.44;;;15.06;95.73
9139;BME280;4604;48.616;9.548;2022-09-25T13:01:00;96451.06;;;14.84;98.94
9139;BME280;4604;48.616;9.548;2022-09-25T13:03:47;96448.59;;;14.83;99.69
9139;BME280;4604;48.616;9.548;2022-09-25T13:06:24;96455.00;;;14.65;100.00
9139;BME280;4604;48.616;9.548;2022-09-25T13:09:00;96456.75;;;14.81;100.00
9139;BME280;4604;48.616;9.548;2022-09-25T13:11:35;96454.97;;;14.73;100.00
9139;BME280;4604;48.616;9.548;2022-09-25T13:14:06;96449.31;;;14.45;100.00
9139;BME280;4604;48.616;9.548;2022-09-25T13:16:39;96447.41;;;14.62;100.00
9139;BME280;4604;48.616;9.548;2022-09-25T13:19:10;96440.38;;;14.69;100.00
9139;BME280;4604;48.616;9.548;2022-09-25T13:21:38;96438.84;;;14.75;100.00
9139;BME280;4604;48.616;9.548;2022-09-25T13:24:11;96444.16;;;14.98;98.17
9139;BME280;4604;48.616;9.548;2022-09-25T13:26:44;96448.47;;;14.99;96.77
9139;BME280;4604;48.616;9.548;2022-09-25T13:29:21;96443.38;;;14.89;97.34
9139;BME280;4604;48.616;9.548;2022-09-25T13:31:49;96440.19;;;14.94;96.72
9139;BME280;4604;48.616;9.548;2022-09-25T13:34:20;96444.16;;;14.75;97.44
9139;BME280;4604;48.616;9.548;2022-09-25T13:36:50;96445.00;;;14.75;98.45
9139;BME280;4604;48.616;9.548;2022-09-25T13:39:25;96441.88;;;14.72;99.66
9139;BME280;4604;48.616;9.548;2022-09-25T13:42:15;96436.25;;;14.67;99.95